sensor_id;sensor_type;location;lat;lon;timestamp;temperature;humidity
16827;DHT22;8530;49.540;8.576;2022-07-23T00:00:18;24.20;49.50
16827;DHT22;8530;49.540;8.576;2022-07-23T00:02:47;24.10;49.60
16827;DHT22;8530;49.540;8.576;2022-07-23T00:05:14;24.10;49.70
16827;DHT22;8530;49.540;8.576;2022-07-23T00:07:40;24.10;49.80
16827;DHT22;8530;49.540;8.576;2022-07-23T00:10:08;24.10;49.90
16827;DHT22;8530;49.540;8.576;2022-07-23T00:12:35;24.10;50.50
16827;DHT22;8530;49.540;8.576;2022-07-23T00:15:02;24.10;50.10
16827;DHT22;8530;49.540;8.576;2022-07-23T00:17:29;24.10;50.10
16827;DHT22;8530;49.540;8.576;2022-07-23T00:19:57;24.10;50.20
16827;DHT22;8530;49.540;8.576;2022-07-23T00:22:24;24.10;50.40
16827;DHT22;8530;49.540;8.576;2022-07-23T00:24:51;24.10;50.50
16827;DHT22;8530;49.540;8.576;2022-07-23T00:27:18;24.00;50.60
16827;DHT22;8530;49.540;8.576;2022-07-23T00:29:44;24.00;50.80
16827;DHT22;8530;49.540;8.576;2022-07-23T00:32:11;23.90;50.80
16827;DHT22;8530;49.540;8.576;2022-07-23T00:34:38;23.90;51.00
16827;DHT22;8530;49.540;8.576;2022-07-23T00:37:06;23.80;51.10
16827;DHT22;8530;49.540;8.576;2022-07-23T00:39:32;23.80;51.40
16827;DHT22;8530;49.540;8.576;2022-07-23T00:41:59;23.70;51.50
16827;DHT22;8530;49.540;8.576;2022-07-23T00:44:27;23.70;51.70
16827;DHT22;8530;49.540;8.576;2022-07-23T00:46:55;23.60;51.80
16827;DHT22;8530;49.540;8.576;2022-07-23T00:49:23;23.60;52.00
16827;DHT22;8530;49.540;8.576;2022-07-23T00:51:50;23.60;52.20
16827;DHT22;8530;49.540;8.576;2022-07-23T00:54:21;23.60;52.40
16827;DHT22;8530;49.540;8.576;2022-07-23T00:56:48;23.60;52.90
16827;DHT22;8530;49.540;8.576;2022-07-23T00:59:15;23.60;52.70
16827;DHT22;8530;49.540;8.576;2022-07-23T01:01:41;23.60;52.80
16827;DHT22;8530;49.540;8.576;2022-07-23T01:04:09;23.50;52.80
16827;DHT22;8530;49.540;8.576;2022-07-23T01:06:37;23.50;53.00
16827;DHT22;8530;49.540;8.576;2022-07-23T01:09:05;23.50;53.70
16827;DHT22;8530;49.540;8.576;2022-07-23T01:11:35;23.50;53.20
16827;DHT22;8530;49.540;8.576;2022-07-23T01:14:11;23.60;53.50
16827;DHT22;8530;49.540;8.576;2022-07-23T01:16:38;23.50;53.50
16827;DHT22;8530;49.540;8.576;2022-07-23T01:19:05;23.60;53.60
16827;DHT22;8530;49.540;8.576;2022-07-23T01:21:35;23.60;53.80
16827;DHT22;8530;49.540;8.576;2022-07-23T01:24:04;23.50;53.80
16827;DHT22;8530;49.540;8.576;2022-07-23T01:26:31;23.50;54.00
16827;DHT22;8530;49.540;8.576;2022-07-23T01:28:58;23.40;54.10
16827;DHT22;8530;49.540;8.576;2022-07-23T01:31:25;23.30;54.20
16827;DHT22;8530;49.540;8.576;2022-07-23T01:33:52;23.20;54.30
16827;DHT22;8530;49.540;8.576;2022-07-23T01:36:18;23.20;54.60
16827;DHT22;8530;49.540;8.576;2022-07-23T01:38:45;23.10;54.80
16827;DHT22;8530;49.540;8.576;2022-07-23T01:41:13;23.00;54.90
16827;DHT22;8530;49.540;8.576;2022-07-23T01:43:40;23.00;55.20
16827;DHT22;8530;49.540;8.576;2022-07-23T01:46:07;22.90;55.30
16827;DHT22;8530;49.540;8.576;2022-07-23T01:48:34;22.90;55.60
16827;DHT22;8530;49.540;8.576;2022-07-23T01:51:01;22.90;55.70
16827;DHT22;8530;49.540;8.576;2022-07-23T01:53:27;22.80;55.80
16827;DHT22;8530;49.540;8.576;2022-07-23T01:55:56;22.80;56.00
16827;DHT22;8530;49.540;8.576;2022-07-23T01:58:24;22.70;56.10
16827;DHT22;8530;49.540;8.576;2022-07-23T02:00:51;22.70;56.40
16827;DHT22;8530;49.540;8.576;2022-07-23T02:03:18;22.70;56.50
16827;DHT22;8530;49.540;8.576;2022-07-23T02:05:44;22.80;56.80
16827;DHT22;8530;49.540;8.576;2022-07-23T02:08:11;22.80;56.90
16827;DHT22;8530;49.540;8.576;2022-07-23T02:10:38;22.80;57.10
16827;DHT22;8530;49.540;8.576;2022-07-23T02:13:05;22.70;57.20
16827;DHT22;8530;49.540;8.576;2022-07-23T02:15:33;22.70;57.30
16827;DHT22;8530;49.540;8.576;2022-07-23T02:18:00;22.70;57.50
16827;DHT22;8530;49.540;8.576;2022-07-23T02:20:27;22.70;57.60
16827;DHT22;8530;49.540;8.576;2022-07-23T02:22:54;22.70;57.80
16827;DHT22;8530;49.540;8.576;2022-07-23T02:25:20;22.70;58.00
16827;DHT22;8530;49.540;8.576;2022-07-23T02:27:47;22.60;58.10
16827;DHT22;8530;49.540;8.576;2022-07-23T02:30:14;22.60;58.30
16827;DHT22;8530;49.540;8.576;2022-07-23T02:32:42;22.50;58.40
16827;DHT22;8530;49.540;8.576;2022-07-23T02:35:09;22.50;58.60
16827;DHT22;8530;49.540;8.576;2022-07-23T02:37:35;22.50;58.90
16827;DHT22;8530;49.540;8.576;2022-07-23T02:40:03;22.40;59.00
16827;DHT22;8530;49.540;8.576;2022-07-23T02:42:30;22.40;59.30
16827;DHT22;8530;49.540;8.576;2022-07-23T02:44:57;22.40;59.50
16827;DHT22;8530;49.540;8.576;2022-07-23T02:47:23;22.30;59.60
16827;DHT22;8530;49.540;8.576;2022-07-23T02:49:51;22.30;59.90
16827;DHT22;8530;49.540;8.576;2022-07-23T02:52:18;22.30;60.20
16827;DHT22;8530;49.540;8.576;2022-07-23T02:54:45;22.30;60.40
16827;DHT22;8530;49.540;8.576;2022-07-23T02:57:11;22.30;60.70
16827;DHT22;8530;49.540;8.576;2022-07-23T02:59:38;22.30;61.00
16827;DHT22;8530;49.540;8.576;2022-07-23T03:02:05;22.20;61.10
16827;DHT22;8530;49.540;8.576;2022-07-23T03:04:31;22.30;61.40
16827;DHT22;8530;49.540;8.576;2022-07-23T03:06:59;22.30;61.60
16827;DHT22;8530;49.540;8.576;2022-07-23T03:09:26;22.30;61.80
16827;DHT22;8530;49.540;8.576;2022-07-23T03:11:53;22.30;62.10
16827;DHT22;8530;49.540;8.576;2022-07-23T03:14:19;22.30;62.20
16827;DHT22;8530;49.540;8.576;2022-07-23T03:16:46;22.20;62.40
16827;DHT22;8530;49.540;8.576;2022-07-23T03:19:15;22.20;62.60
16827;DHT22;8530;49.540;8.576;2022-07-23T03:21:41;22.20;62.90
16827;DHT22;8530;49.540;8.576;2022-07-23T03:24:10;22.10;63.00
16827;DHT22;8530;49.540;8.576;2022-07-23T03:26:36;22.10;63.30
16827;DHT22;8530;49.540;8.576;2022-07-23T03:29:03;22.10;63.60
16827;DHT22;8530;49.540;8.576;2022-07-23T03:31:30;22.00;63.80
16827;DHT22;8530;49.540;8.576;2022-07-23T03:33:57;22.00;64.20
16827;DHT22;8530;49.540;8.576;2022-07-23T03:36:24;21.90;64.40
16827;DHT22;8530;49.540;8.576;2022-07-23T03:38:51;21.90;64.70
16827;DHT22;8530;49.540;8.576;2022-07-23T03:41:19;21.90;65.00
16827;DHT22;8530;49.540;8.576;2022-07-23T03:43:46;21.90;65.30
16827;DHT22;8530;49.540;8.576;2022-07-23T03:46:13;21.90;65.60
16827;DHT22;8530;49.540;8.576;2022-07-23T03:48:40;21.90;65.90
16827;DHT22;8530;49.540;8.576;2022-07-23T03:51:06;21.80;66.10
16827;DHT22;8530;49.540;8.576;2022-07-23T03:53:33;21.90;66.50
16827;DHT22;8530;49.540;8.576;2022-07-23T03:56:00;21.90;66.70
16827;DHT22;8530;49.540;8.576;2022-07-23T03:58:28;21.90;67.00
16827;DHT22;8530;49.540;8.576;2022-07-23T04:00:54;21.90;67.30
16827;DHT22;8530;49.540;8.576;2022-07-23T04:03:21;21.90;67.60
16827;DHT22;8530;49.540;8.576;2022-07-23T04:05:48;21.90;67.90
16827;DHT22;8530;49.540;8.576;2022-07-23T04:08:15;21.90;68.20
16827;DHT22;8530;49.540;8.576;2022-07-23T04:10:41;21.90;68.40
16827;DHT22;8530;49.540;8.576;2022-07-23T04:13:08;21.90;68.70
16827;DHT22;8530;49.540;8.576;2022-07-23T04:15:36;21.90;68.90
16827;DHT22;8530;49.540;8.576;2022-07-23T04:18:03;21.90;69.20
16827;DHT22;8530;49.540;8.576;2022-07-23T04:20:30;22.00;69.50
16827;DHT22;8530;49.540;8.576;2022-07-23T04:22:56;22.00;69.80
16827;DHT22;8530;49.540;8.576;2022-07-23T04:25:23;21.90;69.90
16827;DHT22;8530;49.540;8.576;2022-07-23T04:27:50;22.00;70.30
16827;DHT22;8530;49.540;8.576;2022-07-23T04:30:16;22.00;70.60
16827;DHT22;8530;49.540;8.576;2022-07-23T04:32:44;22.00;70.80
16827;DHT22;8530;49.540;8.576;2022-07-23T04:35:11;22.00;71.00
16827;DHT22;8530;49.540;8.576;2022-07-23T04:37:38;22.00;71.20
16827;DHT22;8530;49.540;8.576;2022-07-23T04:40:05;22.00;71.30
16827;DHT22;8530;49.540;8.576;2022-07-23T04:42:32;22.00;71.50
16827;DHT22;8530;49.540;8.576;2022-07-23T04:44:59;22.00;71.60
16827;DHT22;8530;49.540;8.576;2022-07-23T04:47:25;22.10;71.90
16827;DHT22;8530;49.540;8.576;2022-07-23T04:49:53;22.10;72.20
16827;DHT22;8530;49.540;8.576;2022-07-23T04:52:20;22.10;72.70
16827;DHT22;8530;49.540;8.576;2022-07-23T04:54:47;22.10;73.20
16827;DHT22;8530;49.540;8.576;2022-07-23T04:57:14;22.00;74.30
16827;DHT22;8530;49.540;8.576;2022-07-23T04:59:40;22.00;74.50
16827;DHT22;8530;49.540;8.576;2022-07-23T05:02:07;21.90;75.10
16827;DHT22;8530;49.540;8.576;2022-07-23T05:04:34;21.80;75.70
16827;DHT22;8530;49.540;8.576;2022-07-23T05:07:02;21.80;76.40
16827;DHT22;8530;49.540;8.576;2022-07-23T05:09:29;21.80;77.40
16827;DHT22;8530;49.540;8.576;2022-07-23T05:11:55;21.80;78.10
16827;DHT22;8530;49.540;8.576;2022-07-23T05:14:22;21.70;78.80
16827;DHT22;8530;49.540;8.576;2022-07-23T05:16:49;21.70;79.80
16827;DHT22;8530;49.540;8.576;2022-07-23T05:19:16;21.70;80.60
16827;DHT22;8530;49.540;8.576;2022-07-23T05:21:42;21.70;81.30
16827;DHT22;8530;49.540;8.576;2022-07-23T05:24:10;21.60;82.00
16827;DHT22;8530;49.540;8.576;2022-07-23T05:26:37;21.60;82.90
16827;DHT22;8530;49.540;8.576;2022-07-23T05:29:04;21.60;83.60
16827;DHT22;8530;49.540;8.576;2022-07-23T05:31:30;21.60;84.40
16827;DHT22;8530;49.540;8.576;2022-07-23T05:33:57;21.60;85.10
16827;DHT22;8530;49.540;8.576;2022-07-23T05:36:25;21.60;85.90
16827;DHT22;8530;49.540;8.576;2022-07-23T05:38:51;21.60;86.60
16827;DHT22;8530;49.540;8.576;2022-07-23T05:41:19;21.60;87.20
16827;DHT22;8530;49.540;8.576;2022-07-23T05:43:46;21.60;88.10
16827;DHT22;8530;49.540;8.576;2022-07-23T05:46:13;21.60;88.80
16827;DHT22;8530;49.540;8.576;2022-07-23T05:48:39;21.60;89.30
16827;DHT22;8530;49.540;8.576;2022-07-23T05:51:07;21.60;89.90
16827;DHT22;8530;49.540;8.576;2022-07-23T05:53:34;21.60;90.20
16827;DHT22;8530;49.540;8.576;2022-07-23T05:56:01;21.50;90.40
16827;DHT22;8530;49.540;8.576;2022-07-23T05:58:29;21.50;90.70
16827;DHT22;8530;49.540;8.576;2022-07-23T06:00:56;21.40;90.80
16827;DHT22;8530;49.540;8.576;2022-07-23T06:03:23;21.30;91.00
16827;DHT22;8530;49.540;8.576;2022-07-23T06:05:50;21.30;91.30
16827;DHT22;8530;49.540;8.576;2022-07-23T06:08:17;21.40;91.50
16827;DHT22;8530;49.540;8.576;2022-07-23T06:10:44;21.50;91.70
16827;DHT22;8530;49.540;8.576;2022-07-23T06:13:11;21.70;91.80
16827;DHT22;8530;49.540;8.576;2022-07-23T06:15:39;21.90;91.90
16827;DHT22;8530;49.540;8.576;2022-07-23T06:18:06;22.20;92.00
16827;DHT22;8530;49.540;8.576;2022-07-23T06:20:32;23.00;92.70
16827;DHT22;8530;49.540;8.576;2022-07-23T06:22:59;25.10;93.10
16827;DHT22;8530;49.540;8.576;2022-07-23T06:25:26;27.30;91.50
16827;DHT22;8530;49.540;8.576;2022-07-23T06:27:53;28.20;87.30
16827;DHT22;8530;49.540;8.576;2022-07-23T06:30:20;28.30;82.50
16827;DHT22;8530;49.540;8.576;2022-07-23T06:32:48;28.00;78.10
16827;DHT22;8530;49.540;8.576;2022-07-23T06:35:15;27.60;75.60
16827;DHT22;8530;49.540;8.576;2022-07-23T06:37:42;27.20;74.30
16827;DHT22;8530;49.540;8.576;2022-07-23T06:40:10;27.00;73.70
16827;DHT22;8530;49.540;8.576;2022-07-23T06:42:38;26.70;72.70
16827;DHT22;8530;49.540;8.576;2022-07-23T06:45:06;26.60;72.30
16827;DHT22;8530;49.540;8.576;2022-07-23T06:47:33;26.40;71.70
16827;DHT22;8530;49.540;8.576;2022-07-23T06:50:01;26.30;71.40
16827;DHT22;8530;49.540;8.576;2022-07-23T06:52:28;26.10;71.30
16827;DHT22;8530;49.540;8.576;2022-07-23T06:54:55;26.00;71.20
16827;DHT22;8530;49.540;8.576;2022-07-23T06:57:21;25.90;71.10
16827;DHT22;8530;49.540;8.576;2022-07-23T06:59:48;25.90;70.90
16827;DHT22;8530;49.540;8.576;2022-07-23T07:02:15;25.90;70.80
16827;DHT22;8530;49.540;8.576;2022-07-23T07:04:42;25.80;70.70
16827;DHT22;8530;49.540;8.576;2022-07-23T07:07:10;25.70;70.20
16827;DHT22;8530;49.540;8.576;2022-07-23T07:09:37;25.40;69.80
16827;DHT22;8530;49.540;8.576;2022-07-23T07:12:04;25.00;69.70
16827;DHT22;8530;49.540;8.576;2022-07-23T07:14:31;24.60;69.90
16827;DHT22;8530;49.540;8.576;2022-07-23T07:16:58;24.40;70.20
16827;DHT22;8530;49.540;8.576;2022-07-23T07:19:25;24.20;70.40
16827;DHT22;8530;49.540;8.576;2022-07-23T07:21:51;24.00;70.90
16827;DHT22;8530;49.540;8.576;2022-07-23T07:24:19;23.90;71.60
16827;DHT22;8530;49.540;8.576;2022-07-23T07:26:46;23.90;72.10
16827;DHT22;8530;49.540;8.576;2022-07-23T07:29:13;23.80;72.60
16827;DHT22;8530;49.540;8.576;2022-07-23T07:31:39;23.80;73.30
16827;DHT22;8530;49.540;8.576;2022-07-23T07:34:06;23.90;73.90
16827;DHT22;8530;49.540;8.576;2022-07-23T07:36:33;24.10;74.40
16827;DHT22;8530;49.540;8.576;2022-07-23T07:39:02;24.30;74.60
16827;DHT22;8530;49.540;8.576;2022-07-23T07:41:30;24.60;74.70
16827;DHT22;8530;49.540;8.576;2022-07-23T07:43:57;24.80;75.20
16827;DHT22;8530;49.540;8.576;2022-07-23T07:46:24;25.10;74.30
16827;DHT22;8530;49.540;8.576;2022-07-23T07:48:52;25.30;73.80
16827;DHT22;8530;49.540;8.576;2022-07-23T07:51:19;25.60;73.20
16827;DHT22;8530;49.540;8.576;2022-07-23T07:53:46;27.10;75.70
16827;DHT22;8530;49.540;8.576;2022-07-23T07:56:13;28.60;73.30
16827;DHT22;8530;49.540;8.576;2022-07-23T07:58:41;29.30;67.90
16827;DHT22;8530;49.540;8.576;2022-07-23T08:01:08;29.50;63.40
16827;DHT22;8530;49.540;8.576;2022-07-23T08:03:34;29.80;61.00
16827;DHT22;8530;49.540;8.576;2022-07-23T08:06:01;30.30;58.80
16827;DHT22;8530;49.540;8.576;2022-07-23T08:08:28;31.50;57.40
16827;DHT22;8530;49.540;8.576;2022-07-23T08:10:55;33.30;55.00
16827;DHT22;8530;49.540;8.576;2022-07-23T08:13:21;35.00;50.10
16827;DHT22;8530;49.540;8.576;2022-07-23T08:15:49;35.40;46.80
16827;DHT22;8530;49.540;8.576;2022-07-23T08:18:18;35.20;44.10
16827;DHT22;8530;49.540;8.576;2022-07-23T08:20:45;35.00;42.40
16827;DHT22;8530;49.540;8.576;2022-07-23T08:23:12;34.30;41.10
16827;DHT22;8530;49.540;8.576;2022-07-23T08:25:41;33.50;41.00
16827;DHT22;8530;49.540;8.576;2022-07-23T08:28:09;33.00;40.80
16827;DHT22;8530;49.540;8.576;2022-07-23T08:30:37;33.00;40.60
16827;DHT22;8530;49.540;8.576;2022-07-23T08:33:06;33.10;40.20
16827;DHT22;8530;49.540;8.576;2022-07-23T08:35:38;32.90;39.80
16827;DHT22;8530;49.540;8.576;2022-07-23T08:38:07;33.00;39.50
16827;DHT22;8530;49.540;8.576;2022-07-23T08:40:36;32.90;39.10
16827;DHT22;8530;49.540;8.576;2022-07-23T08:43:06;32.80;39.00
16827;DHT22;8530;49.540;8.576;2022-07-23T08:45:36;32.50;39.20
16827;DHT22;8530;49.540;8.576;2022-07-23T08:48:06;32.10;39.90
16827;DHT22;8530;49.540;8.576;2022-07-23T08:50:35;31.70;39.40
16827;DHT22;8530;49.540;8.576;2022-07-23T08:53:06;31.30;39.80
16827;DHT22;8530;49.540;8.576;2022-07-23T08:55:32;31.10;40.00
16827;DHT22;8530;49.540;8.576;2022-07-23T08:57:59;30.90;40.10
16827;DHT22;8530;49.540;8.576;2022-07-23T09:00:26;30.70;40.10
16827;DHT22;8530;49.540;8.576;2022-07-23T09:02:53;30.50;40.20
16827;DHT22;8530;49.540;8.576;2022-07-23T09:05:21;30.30;40.40
16827;DHT22;8530;49.540;8.576;2022-07-23T09:08:05;30.20;40.90
16827;DHT22;8530;49.540;8.576;2022-07-23T09:10:46;30.30;41.10
16827;DHT22;8530;49.540;8.576;2022-07-23T09:13:31;30.30;41.00
16827;DHT22;8530;49.540;8.576;2022-07-23T09:16:00;30.30;41.00
16827;DHT22;8530;49.540;8.576;2022-07-23T09:18:36;30.30;41.10
16827;DHT22;8530;49.540;8.576;2022-07-23T09:21:11;30.30;41.10
16827;DHT22;8530;49.540;8.576;2022-07-23T09:23:39;30.50;41.20
16827;DHT22;8530;49.540;8.576;2022-07-23T09:26:18;30.60;41.00
16827;DHT22;8530;49.540;8.576;2022-07-23T09:28:54;30.50;40.90
16827;DHT22;8530;49.540;8.576;2022-07-23T09:31:21;30.30;40.80
16827;DHT22;8530;49.540;8.576;2022-07-23T09:33:49;30.30;40.90
16827;DHT22;8530;49.540;8.576;2022-07-23T09:36:27;30.30;40.90
16827;DHT22;8530;49.540;8.576;2022-07-23T09:38:54;30.40;40.90
16827;DHT22;8530;49.540;8.576;2022-07-23T09:41:21;30.60;40.80
16827;DHT22;8530;49.540;8.576;2022-07-23T09:43:54;30.60;40.70
16827;DHT22;8530;49.540;8.576;2022-07-23T09:46:23;30.60;40.70
16827;DHT22;8530;49.540;8.576;2022-07-23T09:48:50;30.60;40.70
16827;DHT22;8530;49.540;8.576;2022-07-23T09:51:19;30.60;40.60
16827;DHT22;8530;49.540;8.576;2022-07-23T09:53:53;30.70;40.40
16827;DHT22;8530;49.540;8.576;2022-07-23T09:56:20;30.70;40.10
16827;DHT22;8530;49.540;8.576;2022-07-23T09:58:50;30.50;40.10
16827;DHT22;8530;49.540;8.576;2022-07-23T10:01:17;30.30;40.20
16827;DHT22;8530;49.540;8.576;2022-07-23T10:03:46;30.30;40.30
16827;DHT22;8530;49.540;8.576;2022-07-23T10:06:13;30.30;40.40
16827;DHT22;8530;49.540;8.576;2022-07-23T10:08:44;30.20;40.40
16827;DHT22;8530;49.540;8.576;2022-07-23T10:11:13;30.40;40.40
16827;DHT22;8530;49.540;8.576;2022-07-23T10:13:40;30.50;40.40
16827;DHT22;8530;49.540;8.576;2022-07-23T10:16:18;30.70;40.30
16827;DHT22;8530;49.540;8.576;2022-07-23T10:18:45;30.90;40.30
16827;DHT22;8530;49.540;8.576;2022-07-23T10:21:21;30.90;40.10
16827;DHT22;8530;49.540;8.576;2022-07-23T10:24:01;30.90;40.10
16827;DHT22;8530;49.540;8.576;2022-07-23T10:26:35;31.10;40.00
16827;DHT22;8530;49.540;8.576;2022-07-23T10:29:13;31.10;39.70
16827;DHT22;8530;49.540;8.576;2022-07-23T10:31:50;31.20;39.60
16827;DHT22;8530;49.540;8.576;2022-07-23T10:34:23;31.40;39.40
16827;DHT22;8530;49.540;8.576;2022-07-23T10:36:56;31.70;39.20
16827;DHT22;8530;49.540;8.576;2022-07-23T10:39:28;31.90;38.90
16827;DHT22;8530;49.540;8.576;2022-07-23T10:42:08;32.00;38.60
16827;DHT22;8530;49.540;8.576;2022-07-23T10:44:39;32.20;38.30
16827;DHT22;8530;49.540;8.576;2022-07-23T10:47:07;32.30;38.10
16827;DHT22;8530;49.540;8.576;2022-07-23T10:49:40;32.20;37.90
16827;DHT22;8530;49.540;8.576;2022-07-23T10:52:24;32.20;37.60
16827;DHT22;8530;49.540;8.576;2022-07-23T10:54:54;32.20;37.40
16827;DHT22;8530;49.540;8.576;2022-07-23T10:57:23;32.60;37.30
16827;DHT22;8530;49.540;8.576;2022-07-23T11:02:57;33.40;36.10
16827;DHT22;8530;49.540;8.576;2022-07-23T11:05:26;33.80;35.80
16827;DHT22;8530;49.540;8.576;2022-07-23T11:08:14;34.00;35.20
16827;DHT22;8530;49.540;8.576;2022-07-23T11:10:45;34.20;34.40
16827;DHT22;8530;49.540;8.576;2022-07-23T11:13:32;34.40;34.00
16827;DHT22;8530;49.540;8.576;2022-07-23T11:16:16;34.50;33.50
16827;DHT22;8530;49.540;8.576;2022-07-23T11:19:08;34.50;33.00
16827;DHT22;8530;49.540;8.576;2022-07-23T11:21:46;34.60;32.60
16827;DHT22;8530;49.540;8.576;2022-07-23T11:24:18;34.40;32.30
16827;DHT22;8530;49.540;8.576;2022-07-23T11:29:46;34.10;32.20
16827;DHT22;8530;49.540;8.576;2022-07-23T11:32:36;33.60;32.30
16827;DHT22;8530;49.540;8.576;2022-07-23T11:35:25;33.40;32.60
16827;DHT22;8530;49.540;8.576;2022-07-23T11:37:54;33.30;32.90
16827;DHT22;8530;49.540;8.576;2022-07-23T11:40:24;33.30;32.90
16827;DHT22;8530;49.540;8.576;2022-07-23T11:42:54;33.50;32.80
16827;DHT22;8530;49.540;8.576;2022-07-23T11:45:22;33.80;32.60
16827;DHT22;8530;49.540;8.576;2022-07-23T11:47:50;34.00;32.50
16827;DHT22;8530;49.540;8.576;2022-07-23T11:50:17;34.00;32.20
16827;DHT22;8530;49.540;8.576;2022-07-23T11:52:44;33.90;32.10
16827;DHT22;8530;49.540;8.576;2022-07-23T11:55:11;33.80;32.10
16827;DHT22;8530;49.540;8.576;2022-07-23T11:57:41;33.50;32.00
16827;DHT22;8530;49.540;8.576;2022-07-23T12:00:11;33.30;32.20
16827;DHT22;8530;49.540;8.576;2022-07-23T12:02:39;33.10;32.30
16827;DHT22;8530;49.540;8.576;2022-07-23T12:05:07;32.90;32.60
16827;DHT22;8530;49.540;8.576;2022-07-23T12:07:36;32.70;32.70
16827;DHT22;8530;49.540;8.576;2022-07-23T12:10:09;32.70;32.80
16827;DHT22;8530;49.540;8.576;2022-07-23T12:12:37;32.60;32.80
16827;DHT22;8530;49.540;8.576;2022-07-23T12:15:06;32.50;32.80
16827;DHT22;8530;49.540;8.576;2022-07-23T12:17:37;32.30;33.00
16827;DHT22;8530;49.540;8.576;2022-07-23T12:20:06;32.30;33.10
16827;DHT22;8530;49.540;8.576;2022-07-23T12:22:35;32.20;33.30
16827;DHT22;8530;49.540;8.576;2022-07-23T12:25:05;32.30;33.40
16827;DHT22;8530;49.540;8.576;2022-07-23T12:27:35;32.30;33.30
16827;DHT22;8530;49.540;8.576;2022-07-23T12:30:22;32.20;33.40
16827;DHT22;8530;49.540;8.576;2022-07-23T12:32:52;32.00;33.40
16827;DHT22;8530;49.540;8.576;2022-07-23T12:35:20;31.90;33.60
16827;DHT22;8530;49.540;8.576;2022-07-23T12:37:50;31.70;33.70
16827;DHT22;8530;49.540;8.576;2022-07-23T12:40:23;31.70;33.80
16827;DHT22;8530;49.540;8.576;2022-07-23T12:42:52;31.70;33.80
16827;DHT22;8530;49.540;8.576;2022-07-23T12:45:19;31.90;33.90
16827;DHT22;8530;49.540;8.576;2022-07-23T12:48:04;32.00;33.80
16827;DHT22;8530;49.540;8.576;2022-07-23T12:50:51;32.20;33.50
16827;DHT22;8530;49.540;8.576;2022-07-23T12:53:19;32.30;33.30
16827;DHT22;8530;49.540;8.576;2022-07-23T12:55:47;32.40;33.30
16827;DHT22;8530;49.540;8.576;2022-07-23T12:58:16;32.60;33.10
16827;DHT22;8530;49.540;8.576;2022-07-23T13:00:57;32.70;32.80
16827;DHT22;8530;49.540;8.576;2022-07-23T13:03:32;33.00;32.60
16827;DHT22;8530;49.540;8.576;2022-07-23T13:06:00;33.20;32.00
16827;DHT22;8530;49.540;8.576;2022-07-23T13:08:29;33.50;31.70
16827;DHT22;8530;49.540;8.576;2022-07-23T13:10:56;33.80;31.50
16827;DHT22;8530;49.540;8.576;2022-07-23T13:13:24;34.30;31.10
16827;DHT22;8530;49.540;8.576;2022-07-23T13:15:52;34.40;30.80
16827;DHT22;8530;49.540;8.576;2022-07-23T13:18:19;34.50;30.70
16827;DHT22;8530;49.540;8.576;2022-07-23T13:20:48;34.50;30.60
16827;DHT22;8530;49.540;8.576;2022-07-23T13:23:15;34.50;30.20
16827;DHT22;8530;49.540;8.576;2022-07-23T13:25:42;34.40;30.00
16827;DHT22;8530;49.540;8.576;2022-07-23T13:28:09;34.20;30.00
16827;DHT22;8530;49.540;8.576;2022-07-23T13:30:36;34.20;30.00
16827;DHT22;8530;49.540;8.576;2022-07-23T13:33:03;34.30;29.90
16827;DHT22;8530;49.540;8.576;2022-07-23T13:35:30;34.40;29.80
16827;DHT22;8530;49.540;8.576;2022-07-23T13:37:58;34.30;29.70
16827;DHT22;8530;49.540;8.576;2022-07-23T13:40:25;34.10;29.70
16827;DHT22;8530;49.540;8.576;2022-07-23T13:42:52;33.80;29.70
16827;DHT22;8530;49.540;8.576;2022-07-23T13:45:19;33.60;29.90
16827;DHT22;8530;49.540;8.576;2022-07-23T13:47:46;33.30;30.00
16827;DHT22;8530;49.540;8.576;2022-07-23T13:50:12;33.20;30.20
16827;DHT22;8530;49.540;8.576;2022-07-23T13:52:41;33.20;30.40
16827;DHT22;8530;49.540;8.576;2022-07-23T13:55:09;33.20;30.40
16827;DHT22;8530;49.540;8.576;2022-07-23T13:57:36;33.20;30.50
16827;DHT22;8530;49.540;8.576;2022-07-23T14:00:04;33.30;30.50
16827;DHT22;8530;49.540;8.576;2022-07-23T14:02:32;33.50;30.50
16827;DHT22;8530;49.540;8.576;2022-07-23T14:04:59;33.70;30.30
16827;DHT22;8530;49.540;8.576;2022-07-23T14:07:25;34.00;30.00
16827;DHT22;8530;49.540;8.576;2022-07-23T14:09:52;34.30;29.70
16827;DHT22;8530;49.540;8.576;2022-07-23T14:12:20;34.60;29.50
16827;DHT22;8530;49.540;8.576;2022-07-23T14:14:47;35.00;29.20
16827;DHT22;8530;49.540;8.576;2022-07-23T14:17:14;35.20;28.80
16827;DHT22;8530;49.540;8.576;2022-07-23T14:19:40;35.30;28.40
16827;DHT22;8530;49.540;8.576;2022-07-23T14:22:07;35.20;28.30
16827;DHT22;8530;49.540;8.576;2022-07-23T14:24:34;34.90;28.20
16827;DHT22;8530;49.540;8.576;2022-07-23T14:27:01;34.70;28.30
16827;DHT22;8530;49.540;8.576;2022-07-23T14:29:30;34.60;28.30
16827;DHT22;8530;49.540;8.576;2022-07-23T14:31:58;34.40;28.70
16827;DHT22;8530;49.540;8.576;2022-07-23T14:34:25;34.40;28.30
16827;DHT22;8530;49.540;8.576;2022-07-23T14:36:52;34.20;28.30
16827;DHT22;8530;49.540;8.576;2022-07-23T14:39:19;34.10;28.30
16827;DHT22;8530;49.540;8.576;2022-07-23T14:41:46;34.10;28.20
16827;DHT22;8530;49.540;8.576;2022-07-23T14:44:12;34.10;28.10
16827;DHT22;8530;49.540;8.576;2022-07-23T14:46:40;34.00;28.00
16827;DHT22;8530;49.540;8.576;2022-07-23T14:49:07;33.90;28.10
16827;DHT22;8530;49.540;8.576;2022-07-23T14:51:34;33.90;28.10
16827;DHT22;8530;49.540;8.576;2022-07-23T14:54:02;33.90;28.10
16827;DHT22;8530;49.540;8.576;2022-07-23T14:56:28;33.90;28.50
16827;DHT22;8530;49.540;8.576;2022-07-23T14:58:55;33.80;28.00
16827;DHT22;8530;49.540;8.576;2022-07-23T15:01:22;33.70;28.10
16827;DHT22;8530;49.540;8.576;2022-07-23T15:03:50;33.80;28.30
16827;DHT22;8530;49.540;8.576;2022-07-23T15:06:17;33.80;28.20
16827;DHT22;8530;49.540;8.576;2022-07-23T15:08:44;33.80;28.20
16827;DHT22;8530;49.540;8.576;2022-07-23T15:11:11;33.80;28.10
16827;DHT22;8530;49.540;8.576;2022-07-23T15:13:38;33.90;28.10
16827;DHT22;8530;49.540;8.576;2022-07-23T15:16:06;34.00;28.00
16827;DHT22;8530;49.540;8.576;2022-07-23T15:18:33;34.10;27.90
16827;DHT22;8530;49.540;8.576;2022-07-23T15:21:02;34.00;27.90
16827;DHT22;8530;49.540;8.576;2022-07-23T15:23:28;33.80;28.00
16827;DHT22;8530;49.540;8.576;2022-07-23T15:25:55;33.50;28.10
16827;DHT22;8530;49.540;8.576;2022-07-23T15:28:22;33.20;28.30
16827;DHT22;8530;49.540;8.576;2022-07-23T15:30:49;32.80;28.50
16827;DHT22;8530;49.540;8.576;2022-07-23T15:33:16;32.70;28.80
16827;DHT22;8530;49.540;8.576;2022-07-23T15:35:43;32.60;28.90
16827;DHT22;8530;49.540;8.576;2022-07-23T15:38:11;32.50;28.90
16827;DHT22;8530;49.540;8.576;2022-07-23T15:40:38;32.60;28.90
16827;DHT22;8530;49.540;8.576;2022-07-23T15:43:04;32.70;28.80
16827;DHT22;8530;49.540;8.576;2022-07-23T15:45:31;32.70;28.70
16827;DHT22;8530;49.540;8.576;2022-07-23T15:47:58;32.80;28.60
16827;DHT22;8530;49.540;8.576;2022-07-23T15:50:25;32.70;28.50
16827;DHT22;8530;49.540;8.576;2022-07-23T15:52:51;32.60;28.60
16827;DHT22;8530;49.540;8.576;2022-07-23T15:55:19;32.50;28.60
16827;DHT22;8530;49.540;8.576;2022-07-23T15:57:46;32.40;28.60